Airport View

Enter AWOS ICAO identifier for current METAR.

ex. KFNL

KGYB 031555Z AUTO 26007KT 7SM SCT025 30/22 A3005 RMK AO2 T03000223

3 Jul 2020 16:13

Frequency: 119.225

Phone: 979-542-0382

Other Area AWOS: K3T5 - KRWV - K11R - KEDC

TAF KAUS 031120Z 0312/0418 20007KT P6SM SCT015 BKN200 TEMPO 0312/0314 BKN015 FM031400 20005KT P6SM BKN022 FM031600 19010KT P6SM SCT030 BKN200